Strona główna
METAR-TAF:

METAR-TAF

Lotnisko :

Twin County Airport

Galax / Hillsville, Wirginia, Stany Zjednoczone

Szerokość geograficzna: 36-46N, Długość geograficzna: 080-49W, wysokość: 834 m

Aktualna obserwacja pogody

Raport powstał 18 minut temu, godzina 12:15 UTC
Cisza
Temperatura 3°C
Wilgotność 70%
Ciśnienie 1024 hPa
Widzialność: 16.1 km
Przerywane chmury na wysokości 3400 ft
Zachmurzenie całkowite na wysokości 8000 ft

METAR: KHLX 261215Z AUTO 00000KT 10SM BKN034 OVC080 03/M02 A3024 RMK AO2 T00301017

czas: 07:33 (12:33 UTC)


TAF: brakujący

Obserwacja i prognoza pogody dla ponad 4000 lotnisk (raport METAR i TAF).

Dostępne stacje oznaczono żółtymi i czerwonymi punktami na mapie.

Najedź kursorem aby zobaczyć nazwę stacji.

Kliknij aby zobaczyć obserwacje i prognozy pogody.

Aby zmienić mapę: kliknij na zielony przycisk z czarnym krzyżykiem, aby powiększyć; na zielony przycisk z myślnikiem, aby pomniejszyć; na zielone strzałki, aby przejść do map sąsiednich.


METAR-TAF: